SOHO CELIAS Proton Monitor
Solar Wind Parameters for Carrington Rotation 2213 (hour averages)


Listed Parameters:

Measurement time (Year, Month, Day of Month, Day of Year, Hour, Minute, Second)
Proton speed [km/sec]
Proton density [protons per cubic centimeter]
Most probable proton thermal speed [km/sec]
Arrival direction [degrees from north-south, with + meaning FROM the south).
(SPEED=-1 means NOT AVAILABLE)

SOHO spacecraft coordinates: based on SOHO PRE orbit files
GSE X, Y, Z [Earth Radii] 1 RE == 6378 km
Heliocentric Range [106 km],
Heliographic Latitude and Longitude [deg].

FORMAT=(1X,I2,1X,I3,1X,I2,1X,I2,1X,I2,F7.1,3F7.2,3X,3F7.1,F7.1,F7.2,F8.2)



                              CELIAS/MTOF/PM DATA                      SOHO ORBIT DATA              
 InSitu_Start__Time       [km/s]  [cm-3] [km/s]  [deg]      [Re]   [Re]   [Re]  [Mkm]  [deg]  [deg]
 YY MON DY DOY:HH:MM:SS   SPEED     Np     Vth    N/S      GSE_X  GSE_Y  GSE_Z  RANGE  HGLAT  HGLONG
 19 JAN 16  16:20:00:00     370    5.6      25   -0.8      195.3  -60.7   11.3  145.9   -4.7   360.0
 19 JAN 16  16:21:00:00     368    5.7      24   -0.4      195.2  -60.6   11.3  145.9   -4.7   359.4
 19 JAN 16  16:22:00:00     365    5.4      24    0.4      195.2  -60.5   11.3  145.9   -4.7   358.9
 19 JAN 16  16:23:00:00     357    5.3      22    1.6      195.2  -60.3   11.3  145.9   -4.7   358.3
 19 JAN 17  17:00:00:00     358    4.9      24    1.4      195.2  -60.2   11.3  145.9   -4.7   357.8
 19 JAN 17  17:01:00:00     356    5.0      22    0.1      195.2  -60.1   11.3  145.9   -4.7   357.2
 19 JAN 17  17:02:00:00     359    5.4      22   -0.1      195.1  -60.0   11.4  145.9   -4.7   356.7
 19 JAN 17  17:03:00:00     358    3.8      25    0.1      195.1  -59.8   11.4  145.9   -4.7   356.2
 19 JAN 17  17:04:00:00     360    4.4      25   -0.5      195.1  -59.7   11.4  145.9   -4.7   355.6
 19 JAN 17  17:05:00:00     355    4.4      22    0.6      195.1  -59.6   11.4  145.9   -4.7   355.1
 19 JAN 17  17:06:00:00     360    4.4      23    0.2      195.1  -59.5   11.4  145.9   -4.7   354.5
 19 JAN 17  17:07:00:00     360    4.8      24    0.3      195.0  -59.3   11.4  145.9   -4.7   354.0
 19 JAN 17  17:08:00:00     379    7.0      26    2.3      195.0  -59.2   11.5  145.9   -4.7   353.4
 19 JAN 17  17:09:00:00     393    5.8      29    1.7      195.0  -59.1   11.5  145.9   -4.8   352.8
 19 JAN 17  17:10:00:00     380    6.4      26    2.5      195.0  -58.9   11.5  145.9   -4.8   352.3
 19 JAN 17  17:11:00:00     396    6.7      31    3.3      195.0  -58.8   11.5  145.9   -4.8   351.7
 19 JAN 17  17:12:00:00     440    4.4      45   -1.4      195.0  -58.7   11.5  145.9   -4.8   351.2
 19 JAN 17  17:13:00:00     433    4.5      42   -0.6      194.9  -58.6   11.6  145.9   -4.8   350.7
 19 JAN 17  17:14:00:00     440    5.5      41   -2.7      194.9  -58.4   11.6  145.9   -4.8   350.1
 19 JAN 17  17:15:00:00     436    5.1      42   -1.3      194.9  -58.3   11.6  145.9   -4.8   349.6
 19 JAN 17  17:16:00:00     448    5.9      45   -1.8      194.9  -58.2   11.6  145.9   -4.8   349.0
 19 JAN 17  17:17:00:00     444    4.9      40   -2.6      194.9  -58.0   11.6  145.9   -4.8   348.5
 19 JAN 17  17:18:00:00     444    4.8      35   -1.0      194.8  -57.9   11.6  145.9   -4.8   347.9
 19 JAN 17  17:19:00:00     456    5.3      31    0.3      194.8  -57.8   11.7  145.9   -4.8   347.4
 19 JAN 17  17:20:00:00     459    4.1      34   -0.9      194.8  -57.7   11.7  145.9   -4.8   346.8
 19 JAN 17  17:21:00:00     459    3.4      37    1.0      194.8  -57.5   11.7  145.9   -4.8   346.2
 19 JAN 17  17:22:00:00     451    3.2      34   -0.6      194.8  -57.4   11.7  145.9   -4.8   345.7
 19 JAN 17  17:23:00:00     446    3.1      35    0.0      194.8  -57.3   11.7  145.9   -4.8   345.2
 19 JAN 18  18:00:00:00     446    3.3      33    0.3      194.7  -57.1   11.7  145.9   -4.8   344.6
 19 JAN 18  18:01:00:00     450    4.2      29   -0.4      194.7  -57.0   11.8  145.9   -4.8   344.1
 19 JAN 18  18:02:00:00     450    3.9      28    0.4      194.7  -56.9   11.8  145.9   -4.8   343.5
 19 JAN 18  18:03:00:00     448    4.0      26   -0.2      194.7  -56.8   11.8  145.9   -4.8   343.0
 19 JAN 18  18:04:00:00     447    3.5      29   -0.5      194.7  -56.6   11.8  145.9   -4.8   342.4
 19 JAN 18  18:05:00:00     438    3.0      33   -0.9      194.7  -56.5   11.8  145.9   -4.8   341.9
 19 JAN 18  18:06:00:00     441    3.0      31   -0.9      194.6  -56.4   11.8  145.9   -4.8   341.3
 19 JAN 18  18:07:00:00     444    2.9      33    0.0      194.6  -56.2   11.9  145.9   -4.8   340.8
 19 JAN 18  18:08:00:00     436    2.6      35    0.8      194.6  -56.1   11.9  145.9   -4.8   340.2
 19 JAN 18  18:09:00:00     438    2.6      30   -1.3      194.6  -56.0   11.9  145.9   -4.8   339.6
 19 JAN 18  18:10:00:00     426    1.7      35   -1.0      194.6  -55.8   11.9  145.9   -4.8   339.1
 19 JAN 18  18:11:00:00     422    2.3      35    0.1      194.6  -55.7   11.9  145.9   -4.8   338.6
 19 JAN 18  18:12:00:00     418    2.2      37    0.4      194.5  -55.6   11.9  145.9   -4.8   338.0
 19 JAN 18  18:13:00:00     411    2.5      34   -1.0      194.5  -55.5   12.0  145.9   -4.8   337.5
 19 JAN 18  18:14:00:00     409    2.5      34   -0.5      194.5  -55.3   12.0  145.9   -4.9   336.9
 19 JAN 18  18:15:00:00     409    2.3      34    0.2      194.5  -55.2   12.0  145.9   -4.9   336.4
 19 JAN 18  18:16:00:00     414    2.3      35   -0.7      194.5  -55.1   12.0  145.9   -4.9   335.8
 19 JAN 18  18:17:00:00     395    2.7      30   -0.7      194.5  -54.9   12.0  145.9   -4.9   335.3
 19 JAN 18  18:18:00:00     397    2.8      31   -1.7      194.5  -54.8   12.0  145.9   -4.9   334.7
 19 JAN 18  18:19:00:00     392    2.5      30   -1.3      194.4  -54.7   12.1  145.9   -4.9   334.2
 19 JAN 18  18:20:00:00     385    2.7      28   -0.7      194.4  -54.5   12.1  145.9   -4.9   333.6
 19 JAN 18  18:21:00:00     387    2.3      28    0.4      194.4  -54.4   12.1  145.9   -4.9   333.1
 19 JAN 18  18:22:00:00     380    2.3      26    1.1      194.4  -54.3   12.1  145.9   -4.9   332.5
 19 JAN 18  18:23:00:00     373    2.8      25    0.3      194.4  -54.1   12.1  145.9   -4.9   332.0
 19 JAN 19  19:00:00:00     363    3.2      22   -0.4      194.4  -54.0   12.1  145.9   -4.9   331.5
 19 JAN 19  19:01:00:00     361    3.0      22   -0.5      194.3  -53.9   12.2  145.9   -4.9   330.9
 19 JAN 19  19:02:00:00     356    2.4      21   -1.1      194.3  -53.7   12.2  145.9   -4.9   330.4
 19 JAN 19  19:03:00:00     355    2.3      22   -1.4      194.3  -53.6   12.2  145.9   -4.9   329.8
 19 JAN 19  19:04:00:00     355    3.5      21   -1.6      194.3  -53.5   12.2  145.9   -4.9   329.2
 19 JAN 19  19:05:00:00     355    3.5      21   -0.7      194.3  -53.3   12.2  145.9   -4.9   328.7
 19 JAN 19  19:06:00:00     352    4.2      20   -0.8      194.3  -53.2   12.2  145.9   -4.9   328.1
 19 JAN 19  19:07:00:00     351    4.6      20   -0.8      194.3  -53.1   12.3  145.9   -4.9   327.6
 19 JAN 19  19:08:00:00     352    4.6      20   -0.4      194.3  -52.9   12.3  145.9   -4.9   327.0
 19 JAN 19  19:09:00:00     355    4.1      21   -0.1      194.2  -52.8   12.3  145.9   -4.9   326.5
 19 JAN 19  19:10:00:00     351    4.1      20   -0.1      194.2  -52.7   12.3  145.9   -4.9   326.0
 19 JAN 19  19:11:00:00     350    3.9      20   -0.1      194.2  -52.5   12.3  145.9   -4.9   325.4
 19 JAN 19  19:12:00:00     351    3.6      20   -0.1      194.2  -52.4   12.3  145.9   -4.9   324.9
 19 JAN 19  19:13:00:00     351    3.0      20    0.3      194.2  -52.3   12.4  145.9   -4.9   324.3
 19 JAN 19  19:14:00:00     351    3.1      19    0.3      194.2  -52.1   12.4  145.9   -4.9   323.8
 19 JAN 19  19:15:00:00     349    3.9      18    0.3      194.2  -52.0   12.4  145.9   -4.9   323.2
 19 JAN 19  19:16:00:00     350    3.6      20    0.0      194.1  -51.9   12.4  145.9   -4.9   322.6
 19 JAN 19  19:17:00:00     348    3.6      18   -0.3      194.1  -51.7   12.4  145.9   -4.9   322.1
 19 JAN 19  19:18:00:00     349    3.3      19   -0.5      194.1  -51.6   12.4  145.9   -4.9   321.5
 19 JAN 19  19:19:00:00     350    3.5      20   -0.6      194.1  -51.5   12.5  145.9   -5.0   321.0
 19 JAN 19  19:20:00:00     350    3.3      20   -0.5      194.1  -51.3   12.5  146.0   -5.0   320.5
 19 JAN 19  19:21:00:00     350    2.8      23   -0.6      194.1  -51.2   12.5  146.0   -5.0   319.9
 19 JAN 19  19:22:00:00     347    2.3      25   -0.2      194.1  -51.1   12.5  146.0   -5.0   319.4
 19 JAN 19  19:23:00:00     347    2.4      23   -0.5      194.1  -50.9   12.5  146.0   -5.0   318.8
 19 JAN 20  20:00:00:00     350    2.9      21   -0.9      194.0  -50.8   12.5  146.0   -5.0   318.3
 19 JAN 20  20:01:00:00     347    2.2      24   -0.6      194.0  -50.7   12.5  146.0   -5.0   317.7
 19 JAN 20  20:02:00:00     341    2.1      25   -0.7      194.0  -50.5   12.6  146.0   -5.0   317.2
 19 JAN 20  20:03:00:00     335    1.9      25   -0.3      194.0  -50.4   12.6  146.0   -5.0   316.6
 19 JAN 20  20:04:00:00     334    1.9      24   -0.2      194.0  -50.3   12.6  146.0   -5.0   316.0
 19 JAN 20  20:05:00:00     328    2.2      23   -0.5      194.0  -50.1   12.6  146.0   -5.0   315.5
 19 JAN 20  20:06:00:00     326    2.1      23   -1.2      194.0  -50.0   12.6  146.0   -5.0   315.0
 19 JAN 20  20:07:00:00     330    2.3      23   -3.4      194.0  -49.9   12.6  146.0   -5.0   314.4
 19 JAN 20  20:08:00:00     335    1.8      25   -2.4      194.0  -49.7   12.7  146.0   -5.0   313.9
 19 JAN 20  20:09:00:00     328    2.0      24   -1.7      193.9  -49.6   12.7  146.0   -5.0   313.3
 19 JAN 20  20:10:00:00     330    1.7      24   -1.3      193.9  -49.5   12.7  146.0   -5.0   312.8
 19 JAN 20  20:11:00:00     322    2.0      23   -1.1      193.9  -49.3   12.7  146.0   -5.0   312.2
 19 JAN 20  20:12:00:00     315    2.2      22   -1.0      193.9  -49.2   12.7  146.0   -5.0   311.7
 19 JAN 20  20:13:00:00     314    2.2      22   -0.6      193.9  -49.0   12.7  146.0   -5.0   311.1
 19 JAN 20  20:14:00:00     317    2.2      22   -0.5      193.9  -48.9   12.7  146.0   -5.0   310.6
 19 JAN 20  20:15:00:00     337    2.5      25   -0.9      193.9  -48.8   12.8  146.0   -5.0   310.0
 19 JAN 20  20:16:00:00     339    2.5      25   -1.9      193.9  -48.6   12.8  146.0   -5.0   309.5
 19 JAN 20  20:17:00:00     337    2.4      25   -0.5      193.9  -48.5   12.8  146.0   -5.0   308.9
 19 JAN 20  20:18:00:00     336    3.0      25    0.1      193.9  -48.4   12.8  146.0   -5.0   308.4
 19 JAN 20  20:19:00:00     346    4.3      22   -1.7      193.8  -48.2   12.8  146.0   -5.0   307.9
 19 JAN 20  20:20:00:00     342    2.0      23    0.5      193.8  -48.1   12.8  146.0   -5.0   307.3
 19 JAN 20  20:21:00:00     339    1.5      23    1.3      193.8  -47.9   12.9  146.0   -5.0   306.8
 19 JAN 20  20:22:00:00     340    1.4      23   -0.2      193.8  -47.8   12.9  146.0   -5.0   306.2
 19 JAN 20  20:23:00:00     326    1.8      23   -2.1      193.8  -47.7   12.9  146.0   -5.0   305.6
 19 JAN 21  21:00:00:00     310    1.6      20   -1.1      193.8  -47.5   12.9  146.0   -5.0   305.1
 19 JAN 21  21:01:00:00     320    1.4      22   -1.7      193.8  -47.4   12.9  146.0   -5.0   304.5
 19 JAN 21  21:02:00:00     306    1.8      20   -1.0      193.8  -47.3   12.9  146.0   -5.1   304.0
 19 JAN 21  21:03:00:00     299    2.3      19   -1.0      193.8  -47.1   12.9  146.0   -5.1   303.4
 19 JAN 21  21:04:00:00     297    2.4      19   -1.0      193.8  -47.0   13.0  146.0   -5.1   302.9
 19 JAN 21  21:05:00:00     301    2.4      19   -1.1      193.8  -46.8   13.0  146.0   -5.1   302.4
 19 JAN 21  21:06:00:00     305    2.7      19   -2.0      193.7  -46.7   13.0  146.0   -5.1   301.8
 19 JAN 21  21:07:00:00     302    2.9      19   -1.5      193.7  -46.6   13.0  146.0   -5.1   301.3
 19 JAN 21  21:08:00:00     303    3.7      19   -2.5      193.7  -46.4   13.0  146.0   -5.1   300.7
 19 JAN 21  21:09:00:00     300    3.7      19   -2.1      193.7  -46.3   13.0  146.0   -5.1   300.2
 19 JAN 21  21:10:00:00     297    4.1      19   -2.8      193.7  -46.1   13.0  146.0   -5.1   299.6
 19 JAN 21  21:11:00:00     299    4.4      19   -3.1      193.7  -46.0   13.1  146.0   -5.1   299.0
 19 JAN 21  21:12:00:00     296    3.9      19   -2.5      193.7  -45.9   13.1  146.0   -5.1   298.5
 19 JAN 21  21:13:00:00     296    3.7      19   -2.3      193.7  -45.7   13.1  146.0   -5.1   297.9
 19 JAN 21  21:14:00:00     294    3.8      19   -2.1      193.7  -45.6   13.1  146.0   -5.1   297.4
 19 JAN 21  21:15:00:00     296    4.1      19   -2.5      193.7  -45.4   13.1  146.0   -5.1   296.8
 19 JAN 21  21:16:00:00     295    4.7      19   -2.9      193.7  -45.3   13.1  146.0   -5.1   296.3
 19 JAN 21  21:17:00:00     291    4.6      19   -2.3      193.7  -45.2   13.1  146.0   -5.2   295.8
 19 JAN 21  21:18:00:00     292    4.8      19   -2.6      193.6  -45.0   13.2  146.0   -5.2   295.2
 19 JAN 21  21:19:00:00     292    5.9      19   -3.5      193.6  -44.9   13.2  146.0   -5.2   294.7
 19 JAN 21  21:20:00:00     293    7.2      19   -5.7      193.6  -44.7   13.2  146.0   -5.2   294.1
 19 JAN 21  21:21:00:00     292    6.8      18   -6.1      193.6  -44.6   13.2  146.0   -5.2   293.6
 19 JAN 21  21:22:00:00     290    7.2      17   -5.6      193.6  -44.5   13.2  146.0   -5.2   293.0
 19 JAN 21  21:23:00:00     290    4.7      18   -3.9      193.6  -44.3   13.2  146.0   -5.2   292.4
 19 JAN 22  22:00:00:00     291    3.4      18   -3.2      193.6  -44.2   13.2  146.0   -5.2   291.9
 19 JAN 22  22:01:00:00     292    2.6      19   -2.5      193.6  -44.0   13.3  146.0   -5.2   291.3
 19 JAN 22  22:02:00:00     289    3.1      18   -2.0      193.6  -43.9   13.3  146.0   -5.2   290.8
 19 JAN 22  22:03:00:00     291    2.7      19   -1.0      193.6  -43.8   13.3  146.0   -5.2   290.3
 19 JAN 22  22:04:00:00     292    2.5      19   -0.1      193.6  -43.6   13.3  146.0   -5.2   289.7
 19 JAN 22  22:05:00:00     296    2.4      19    0.0      193.6  -43.5   13.3  146.0   -5.2   289.2
 19 JAN 22  22:06:00:00     299    2.0      19   -0.4      193.6  -43.3   13.3  146.0   -5.2   288.6
 19 JAN 22  22:07:00:00     306    2.0      20   -1.2      193.6  -43.2   13.3  146.0   -5.2   288.1
 19 JAN 22  22:08:00:00     305    2.4      19   -1.9      193.6  -43.1   13.3  146.0   -5.2   287.5
 19 JAN 22  22:09:00:00     302    2.7      19   -1.7      193.6  -42.9   13.4  146.0   -5.2   287.0
 19 JAN 22  22:10:00:00     302    2.2      19   -1.6      193.5  -42.8   13.4  146.0   -5.2   286.4
 19 JAN 22  22:11:00:00     295    3.7      19   -2.3      193.5  -42.6   13.4  146.0   -5.2   285.8
 19 JAN 22  22:12:00:00     302    3.1      19    0.7      193.5  -42.5   13.4  146.0   -5.2   285.3
 19 JAN 22  22:13:00:00     311    4.2      20    1.7      193.5  -42.3   13.4  146.0   -5.2   284.8
 19 JAN 22  22:14:00:00     309    3.8      20    1.7      193.5  -42.2   13.4  146.0   -5.2   284.2
 19 JAN 22  22:15:00:00     310    4.2      20    2.8      193.5  -42.1   13.4  146.0   -5.2   283.7
 19 JAN 22  22:16:00:00     313    6.7      19    4.3      193.5  -41.9   13.5  146.0   -5.2   283.2
 19 JAN 22  22:17:00:00     321    2.7      20   -2.2      193.5  -41.8   13.5  146.0   -5.2   282.6
 19 JAN 22  22:18:00:00     319    2.1      20   -1.4      193.5  -41.6   13.5  146.0   -5.2   282.0
 19 JAN 22  22:19:00:00     319    1.9      20   -1.6      193.5  -41.5   13.5  146.0   -5.2   281.5
 19 JAN 22  22:20:00:00     298    2.9      18    0.7      193.5  -41.3   13.5  146.0   -5.2   280.9
 19 JAN 22  22:21:00:00     301    2.5      18    1.9      193.5  -41.2   13.5  146.0   -5.2   280.4
 19 JAN 22  22:22:00:00     332    1.3      21    1.3      193.5  -41.0   13.5  146.0   -5.2   279.8
 19 JAN 22  22:23:00:00     335    2.1      21    1.4      193.5  -40.9   13.5  146.0   -5.2   279.3
 19 JAN 23  23:00:00:00     331    2.4      20   -0.3      193.5  -40.8   13.6  146.0   -5.3   278.7
 19 JAN 23  23:01:00:00     323    2.2      19   -1.8      193.5  -40.6   13.6  146.0   -5.3   278.2
 19 JAN 23  23:02:00:00     340    3.6      18    0.8      193.5  -40.5   13.6  146.0   -5.3   277.7
 19 JAN 23  23:03:00:00     338    1.8      19    2.2      193.5  -40.3   13.6  146.0   -5.3   277.1
 19 JAN 23  23:04:00:00     342    3.0      18    2.3      193.5  -40.2   13.6  146.0   -5.3   276.6
 19 JAN 23  23:05:00:00     340    5.0      17    4.5      193.5  -40.0   13.6  146.0   -5.3   276.0
 19 JAN 23  23:06:00:00     330    3.9      19    4.2      193.5  -39.9   13.6  146.0   -5.3   275.4
 19 JAN 23  23:07:00:00     335    2.3      20   -0.4      193.5  -39.7   13.6  146.0   -5.3   274.9
 19 JAN 23  23:08:00:00     346    3.4      22   -1.9      193.5  -39.6   13.7  146.0   -5.3   274.3
 19 JAN 23  23:09:00:00     346    2.3      24   -2.9      193.5  -39.5   13.7  146.0   -5.3   273.8
 19 JAN 23  23:10:00:00     349    3.0      26   -2.7      193.4  -39.3   13.7  146.0   -5.3   273.2
 19 JAN 23  23:11:00:00     356    6.8      22    0.3      193.4  -39.2   13.7  146.0   -5.3   272.7
 19 JAN 23  23:12:00:00     383    7.1      33    1.2      193.4  -39.0   13.7  146.0   -5.3   272.2
 19 JAN 23  23:13:00:00     406    4.6      39   -0.7      193.4  -38.9   13.7  146.0   -5.3   271.6
 19 JAN 23  23:14:00:00     404    4.7      39   -1.2      193.4  -38.7   13.7  146.0   -5.3   271.1
 19 JAN 23  23:15:00:00     417    7.7      42   -2.0      193.4  -38.6   13.7  146.0   -5.3   270.5
 19 JAN 23  23:16:00:00     420   10.1      41   -1.5      193.4  -38.4   13.8  146.0   -5.3   270.0
 19 JAN 23  23:17:00:00     420   12.7      41   -2.2      193.4  -38.3   13.8  146.0   -5.3   269.4
 19 JAN 23  23:18:00:00     422   11.6      42   -2.5      193.4  -38.1   13.8  146.0   -5.3   268.8
 19 JAN 23  23:19:00:00     443   10.9      42   -3.2      193.4  -38.0   13.8  146.0   -5.3   268.3
 19 JAN 23  23:20:00:00     443   12.0      40   -4.2      193.4  -37.8   13.8  146.0   -5.3   267.7
 19 JAN 23  23:21:00:00     442    9.3      39   -3.1      193.4  -37.7   13.8  146.0   -5.3   267.2
 19 JAN 23  23:22:00:00     446    9.3      37   -2.9      193.4  -37.5   13.8  146.0   -5.3   266.7
 19 JAN 23  23:23:00:00     479   11.1      42   -4.0      193.4  -37.4   13.8  146.0   -5.3   266.1
 19 JAN 24  24:00:00:00     511   11.4      45   -4.6      193.4  -37.2   13.8  146.0   -5.3   265.6
 19 JAN 24  24:01:00:00     513    8.3      44   -3.7      193.4  -37.1   13.9  146.0   -5.3   265.0
 19 JAN 24  24:02:00:00     541    6.2      47   -3.4      193.4  -37.0   13.9  146.0   -5.3   264.5
 19 JAN 24  24:03:00:00     550    4.9      46   -1.2      193.4  -36.8   13.9  146.0   -5.3   263.9
 19 JAN 24  24:04:00:00     545    4.0      48   -2.1      193.4  -36.7   13.9  146.0   -5.3   263.4
 19 JAN 24  24:05:00:00     544    4.2      49   -2.9      193.4  -36.5   13.9  146.0   -5.3   262.8
 19 JAN 24  24:06:00:00     524    3.9      48   -0.7      193.4  -36.4   13.9  146.0   -5.3   262.2
 19 JAN 24  24:07:00:00     519    5.1      47   -1.5      193.4  -36.2   13.9  146.0   -5.3   261.7
 19 JAN 24  24:08:00:00     533    4.9      47   -0.9      193.4  -36.1   13.9  146.0   -5.4   261.2
 19 JAN 24  24:09:00:00     593    4.3      56    1.6      193.4  -35.9   13.9  146.0   -5.4   260.6
 19 JAN 24  24:10:00:00     594    5.5      58    2.9      193.4  -35.8   14.0  146.0   -5.4   260.1
 19 JAN 24  24:11:00:00     588    6.0      58    1.5      193.4  -35.6   14.0  146.0   -5.4   259.6
 19 JAN 24  24:12:00:00     585    5.4      59   -0.1      193.4  -35.5   14.0  146.0   -5.4   259.0
 19 JAN 24  24:13:00:00     596    5.4      59    1.3      193.4  -35.3   14.0  146.0   -5.4   258.4
 19 JAN 24  24:14:00:00     590    5.2      52   -0.8      193.4  -35.2   14.0  146.0   -5.4   257.9
 19 JAN 24  24:15:00:00     584    4.9      52    0.2      193.4  -35.0   14.0  146.0   -5.4   257.3
 19 JAN 24  24:16:00:00     576    4.8      55    1.0      193.4  -34.9   14.0  146.0   -5.4   256.8
 19 JAN 24  24:17:00:00     573    5.1      59    1.5      193.4  -34.7   14.0  146.0   -5.4   256.2
 19 JAN 24  24:18:00:00     583    5.6      58    0.9      193.4  -34.6   14.0  146.0   -5.4   255.7
 19 JAN 24  24:19:00:00     584    6.0      56   -0.4      193.4  -34.4   14.1  146.0   -5.4   255.1
 19 JAN 24  24:20:00:00     579    8.3      63    3.1      193.4  -34.3   14.1  146.0   -5.4   254.6
 19 JAN 24  24:21:00:00     578    7.6      58    0.6      193.4  -34.1   14.1  146.0   -5.4   254.0
 19 JAN 24  24:22:00:00     567    7.1      54    2.3      193.4  -34.0   14.1  146.0   -5.4   253.5
 19 JAN 24  24:23:00:00     577    6.7      50    3.3      193.4  -33.8   14.1  146.0   -5.4   253.0
 19 JAN 25  25:00:00:00     565    6.3      48    3.8      193.4  -33.7   14.1  146.0   -5.4   252.4
 19 JAN 25  25:01:00:00     567    4.0      46   -0.5      193.4  -33.5   14.1  146.0   -5.4   251.8
 19 JAN 25  25:02:00:00     573    2.9      45   -1.3      193.4  -33.3   14.1  146.0   -5.4   251.3
 19 JAN 25  25:03:00:00     573    2.4      49   -0.1      193.4  -33.2   14.1  146.0   -5.4   250.7
 19 JAN 25  25:04:00:00     569    2.5      49   -1.6      193.4  -33.0   14.1  146.0   -5.4   250.2
 19 JAN 25  25:05:00:00     575    3.4      47   -0.9      193.4  -32.9   14.2  146.0   -5.4   249.6
 19 JAN 25  25:06:00:00     573    3.1      50   -0.4      193.4  -32.7   14.2  146.0   -5.4   249.1
 19 JAN 25  25:07:00:00     570    3.3      53   -0.9      193.4  -32.6   14.2  146.0   -5.4   248.5
 19 JAN 25  25:08:00:00     571    3.6      52   -0.7      193.4  -32.4   14.2  146.0   -5.4   248.0
 19 JAN 25  25:09:00:00     579    3.9      53    0.0      193.4  -32.3   14.2  146.0   -5.4   247.5
 19 JAN 25  25:10:00:00     576    4.0      54    0.5      193.4  -32.1   14.2  146.0   -5.4   246.9
 19 JAN 25  25:11:00:00     569    3.7      44    1.8      193.4  -32.0   14.2  146.0   -5.4   246.4
 19 JAN 25  25:12:00:00     566    3.5      43    1.1      193.4  -31.8   14.2  146.0   -5.4   245.8
 19 JAN 25  25:13:00:00     566    3.5      46    0.0      193.4  -31.7   14.2  146.0   -5.4   245.2
 19 JAN 25  25:14:00:00     564    3.4      43    1.0      193.4  -31.5   14.2  146.0   -5.4   244.7
 19 JAN 25  25:15:00:00     562    3.4      43    0.5      193.4  -31.4   14.3  146.0   -5.4   244.1
 19 JAN 25  25:16:00:00     560    3.3      46    0.1      193.4  -31.2   14.3  146.0   -5.4   243.6
 19 JAN 25  25:17:00:00     552    2.9      51   -0.3      193.4  -31.1   14.3  146.0   -5.5   243.0
 19 JAN 25  25:18:00:00     552    2.9      51   -0.9      193.4  -30.9   14.3  146.0   -5.5   242.5
 19 JAN 25  25:19:00:00     554    3.2      48    0.7      193.4  -30.7   14.3  146.0   -5.5   242.0
 19 JAN 25  25:20:00:00     548    2.8      49    0.9      193.4  -30.6   14.3  146.0   -5.5   241.4
 19 JAN 25  25:21:00:00     535    3.0      49    0.3      193.4  -30.4   14.3  146.0   -5.5   240.9
 19 JAN 25  25:22:00:00     527    3.0      48    1.6      193.4  -30.3   14.3  146.0   -5.5   240.3
 19 JAN 25  25:23:00:00     505    3.0      44    0.9      193.4  -30.1   14.3  146.0   -5.5   239.8
 19 JAN 26  26:00:00:00     520    2.1      46    1.1      193.4  -30.0   14.3  146.0   -5.5   239.2
 19 JAN 26  26:01:00:00     523    1.8      47    1.0      193.4  -29.8   14.3  146.0   -5.5   238.6
 19 JAN 26  26:02:00:00     501    2.1      43    1.5      193.4  -29.7   14.4  146.0   -5.5   238.1
 19 JAN 26  26:03:00:00     498    2.2      42    1.2      193.4  -29.5   14.4  146.0   -5.5   237.5
 19 JAN 26  26:04:00:00     464    3.4      31   -0.3      193.4  -29.4   14.4  146.0   -5.5   237.0
 19 JAN 26  26:05:00:00     456    3.7      28   -0.8      193.4  -29.2   14.4  146.0   -5.5   236.5
 19 JAN 26  26:06:00:00     456    3.7      29   -0.1      193.4  -29.0   14.4  146.0   -5.5   235.9
 19 JAN 26  26:07:00:00     453    3.9      28    0.5      193.4  -28.9   14.4  146.0   -5.5   235.4
 19 JAN 26  26:08:00:00     450    4.6      25    0.1      193.4  -28.7   14.4  146.0   -5.5   234.8
 19 JAN 26  26:09:00:00     449    5.5      23    0.1      193.5  -28.6   14.4  146.1   -5.5   234.3
 19 JAN 26  26:10:00:00     449    5.6      24   -0.4      193.5  -28.4   14.4  146.1   -5.6   233.7
 19 JAN 26  26:11:00:00     448    5.2      25   -0.9      193.5  -28.3   14.4  146.1   -5.6   233.2
 19 JAN 26  26:12:00:00     446    4.4      27    0.5      193.5  -28.1   14.4  146.1   -5.6   232.6
 19 JAN 26  26:13:00:00     447    4.5      24    0.2      193.5  -27.9   14.5  146.1   -5.6   232.0
 19 JAN 26  26:14:00:00     443    4.1      27   -0.5      193.5  -27.8   14.5  146.1   -5.6   231.5
 19 JAN 26  26:15:00:00     445    4.1      26   -0.3      193.5  -27.6   14.5  146.1   -5.6   231.0
 19 JAN 26  26:16:00:00     440    4.0      27   -0.3      193.5  -27.5   14.5  146.1   -5.6   230.4
 19 JAN 26  26:17:00:00     446    3.9      22    0.1      193.5  -27.3   14.5  146.1   -5.6   229.9
 19 JAN 26  26:18:00:00     445    4.3      19   -0.7      193.5  -27.2   14.5  146.1   -5.6   229.4
 19 JAN 26  26:19:00:00     440    3.2      24   -0.8      193.5  -27.0   14.5  146.1   -5.6   228.8
 19 JAN 26  26:20:00:00     418    2.4      31   -1.1      193.5  -26.8   14.5  146.1   -5.6   228.2
 19 JAN 26  26:21:00:00     426    2.5      29   -0.8      193.5  -26.7   14.5  146.1   -5.6   227.7
 19 JAN 26  26:22:00:00     419    2.4      32   -0.7      193.5  -26.5   14.5  146.1   -5.6   227.1
 19 JAN 26  26:23:00:00     418    1.6      33    0.3      193.5  -26.4   14.5  146.1   -5.6   226.6
 19 JAN 27  27:00:00:00     412    1.8      33    0.7      193.5  -26.2   14.5  146.1   -5.6   226.0
 19 JAN 27  27:01:00:00     405    2.2      30    0.4      193.5  -26.1   14.5  146.1   -5.6   225.5
 19 JAN 27  27:02:00:00     403    2.1      31    0.5      193.5  -25.9   14.6  146.1   -5.6   224.9
 19 JAN 27  27:03:00:00     402    2.6      33   -1.3      193.5  -25.7   14.6  146.1   -5.6   224.4
 19 JAN 27  27:04:00:00     392    2.7      29   -1.1      193.5  -25.6   14.6  146.1   -5.6   223.9
 19 JAN 27  27:05:00:00     395    2.7      31   -1.5      193.5  -25.4   14.6  146.1   -5.6   223.3
 19 JAN 27  27:06:00:00     399    2.7      32   -1.8      193.5  -25.3   14.6  146.1   -5.6   222.8
 19 JAN 27  27:07:00:00     394    2.9      29   -0.7      193.5  -25.1   14.6  146.1   -5.6   222.2
 19 JAN 27  27:08:00:00     381    2.8      26   -0.4      193.5  -24.9   14.6  146.1   -5.6   221.6
 19 JAN 27  27:09:00:00     387    2.6      28    0.8      193.5  -24.8   14.6  146.1   -5.6   221.1
 19 JAN 27  27:10:00:00     379    2.7      26    0.3      193.5  -24.6   14.6  146.1   -5.6   220.5
 19 JAN 27  27:11:00:00     374    3.0      24   -0.8      193.5  -24.5   14.6  146.1   -5.6   220.0
 19 JAN 27  27:12:00:00     368    3.4      23   -1.4      193.5  -24.3   14.6  146.1   -5.6   219.4
 19 JAN 27  27:13:00:00     367    3.7      22   -1.8      193.5  -24.1   14.6  146.1   -5.6   218.9
 19 JAN 27  27:14:00:00     369    2.2      23   -0.1      193.5  -24.0   14.6  146.1   -5.6   218.4
 19 JAN 27  27:15:00:00     386    1.8      26   -2.0      193.5  -23.8   14.7  146.1   -5.6   217.8
 19 JAN 27  27:16:00:00     354    2.9      21   -0.2      193.6  -23.7   14.7  146.1   -5.6   217.3
 19 JAN 27  27:17:00:00     354    2.3      22    0.3      193.6  -23.5   14.7  146.1   -5.6   216.7
 19 JAN 27  27:18:00:00     362    2.3      24   -0.6      193.6  -23.3   14.7  146.1   -5.6   216.2
 19 JAN 27  27:19:00:00     360    3.2      22    0.0      193.6  -23.2   14.7  146.1   -5.6   215.6
 19 JAN 27  27:20:00:00     359    3.1      21    0.2      193.6  -23.0   14.7  146.1   -5.7   215.0
 19 JAN 27  27:21:00:00     355    3.3      21    0.4      193.6  -22.9   14.7  146.1   -5.7   214.5
 19 JAN 27  27:22:00:00     362    3.0      23    0.8      193.6  -22.7   14.7  146.1   -5.7   213.9
 19 JAN 27  27:23:00:00     358    2.9      23    0.6      193.6  -22.5   14.7  146.1   -5.7   213.4
 19 JAN 28  28:00:00:00     357    3.1      21    0.5      193.6  -22.4   14.7  146.1   -5.7   212.9
 19 JAN 28  28:01:00:00     368    2.1      24    0.1      193.6  -22.2   14.7  146.1   -5.7   212.3
 19 JAN 28  28:02:00:00     358    2.7      22    0.0      193.6  -22.1   14.7  146.1   -5.7   211.8
 19 JAN 28  28:03:00:00     355    3.4      23   -1.3      193.6  -21.9   14.7  146.1   -5.7   211.2
 19 JAN 28  28:04:00:00     353    3.3      21    0.0      193.6  -21.7   14.7  146.1   -5.7   210.7
 19 JAN 28  28:05:00:00     352    3.4      22   -1.3      193.6  -21.6   14.7  146.1   -5.7   210.1
 19 JAN 28  28:06:00:00     352    3.3      22   -1.2      193.6  -21.4   14.8  146.1   -5.7   209.6
 19 JAN 28  28:07:00:00     351    3.4      21   -0.9      193.6  -21.2   14.8  146.1   -5.7   209.0
 19 JAN 28  28:08:00:00     351    3.7      20   -0.6      193.6  -21.1   14.8  146.1   -5.7   208.4
 19 JAN 28  28:09:00:00     351    3.8      21   -1.2      193.6  -20.9   14.8  146.1   -5.7   207.9
 19 JAN 28  28:10:00:00     348    3.4      20    0.1      193.6  -20.8   14.8  146.1   -5.7   207.4
 19 JAN 28  28:11:00:00     347    3.8      19   -0.3      193.6  -20.6   14.8  146.1   -5.7   206.8
 19 JAN 28  28:12:00:00     348    3.7      20    0.1      193.6  -20.4   14.8  146.1   -5.7   206.3
 19 JAN 28  28:13:00:00     348    3.3      20    0.1      193.6  -20.3   14.8  146.1   -5.7   205.7
 19 JAN 28  28:14:00:00     348    3.5      20    0.3      193.6  -20.1   14.8  146.1   -5.7   205.2
 19 JAN 28  28:15:00:00     343    2.3      21    0.1      193.7  -19.9   14.8  146.1   -5.7   204.6
 19 JAN 28  28:16:00:00     341    1.9      22    0.5      193.7  -19.8   14.8  146.1   -5.7   204.1
 19 JAN 28  28:17:00:00     335    1.7      23    0.3      193.7  -19.6   14.8  146.1   -5.7   203.5
 19 JAN 28  28:18:00:00     340    1.7      23    0.7      193.7  -19.4   14.8  146.1   -5.7   203.0
 19 JAN 28  28:19:00:00     340    1.8      21    0.4      193.7  -19.3   14.8  146.1   -5.7   202.4
 19 JAN 28  28:20:00:00     337    1.5      23    1.4      193.7  -19.1   14.8  146.1   -5.7   201.9
 19 JAN 28  28:21:00:00     341    1.9      22    0.9      193.7  -19.0   14.8  146.1   -5.7   201.3
 19 JAN 28  28:22:00:00     339    1.2      23    0.2      193.7  -18.8   14.8  146.1   -5.7   200.8
 19 JAN 28  28:23:00:00     335    1.5      22    0.3      193.7  -18.6   14.8  146.1   -5.7   200.2
 19 JAN 29  29:00:00:00     322    1.6      22    0.6      193.7  -18.5   14.9  146.1   -5.7   199.7
 19 JAN 29  29:01:00:00     324    1.6      21   -0.6      193.7  -18.3   14.9  146.1   -5.7   199.2
 19 JAN 29  29:02:00:00     316    1.7      20   -0.3      193.7  -18.1   14.9  146.1   -5.7   198.6
 19 JAN 29  29:03:00:00      -1   -1.0      -1   99.0      193.7  -18.0   14.9  146.1   -5.7   198.0
 19 JAN 29  29:04:00:00      -1   -1.0      -1   99.0      193.7  -17.8   14.9  146.1   -5.7   197.5
 19 JAN 29  29:05:00:00      -1   -1.0      -1   99.0      193.7  -17.6   14.9  146.1   -5.7   196.9
 19 JAN 29  29:06:00:00      -1   -1.0      -1   99.0      193.7  -17.5   14.9  146.1   -5.7   196.4
 19 JAN 29  29:07:00:00      -1   -1.0      -1   99.0      193.7  -17.3   14.9  146.1   -5.7   195.8
 19 JAN 29  29:08:00:00      -1   -1.0      -1   99.0      193.7  -17.1   14.9  146.1   -5.8   195.3
 19 JAN 29  29:09:00:00     336    2.0      24    0.5      193.7  -17.0   14.9  146.1   -5.8   194.7
 19 JAN 29  29:10:00:00     334    2.3      24    1.2      193.7  -16.8   14.9  146.1   -5.8   194.2
 19 JAN 29  29:11:00:00     329    2.3      24    1.3      193.7  -16.7   14.9  146.1   -5.8   193.7
 19 JAN 29  29:12:00:00     329    2.3      23    1.5      193.8  -16.5   14.9  146.1   -5.8   193.1
 19 JAN 29  29:13:00:00     325    1.7      23    0.9      193.8  -16.3   14.9  146.1   -5.8   192.6
 19 JAN 29  29:14:00:00     317    1.5      21    0.7      193.8  -16.2   14.9  146.1   -5.8   192.0
 19 JAN 29  29:15:00:00     313    1.9      20   -0.6      193.8  -16.0   14.9  146.1   -5.8   191.4
 19 JAN 29  29:16:00:00     303    1.9      19   -0.4      193.8  -15.8   14.9  146.1   -5.8   190.9
 19 JAN 29  29:17:00:00     292    1.7      19   -0.3      193.8  -15.7   14.9  146.1   -5.8   190.3
 19 JAN 29  29:18:00:00     293    1.5      19    0.2      193.8  -15.5   14.9  146.1   -5.8   189.8
 19 JAN 29  29:19:00:00     292    1.5      19    0.5      193.8  -15.3   14.9  146.1   -5.8   189.2
 19 JAN 29  29:20:00:00     290    1.7      18    0.5      193.8  -15.2   14.9  146.1   -5.8   188.7
 19 JAN 29  29:21:00:00     288    1.9      17    0.9      193.8  -15.0   15.0  146.1   -5.8   188.2
 19 JAN 29  29:22:00:00     289    1.8      18    1.5      193.8  -14.8   15.0  146.1   -5.8   187.6
 19 JAN 29  29:23:00:00     286    1.3      17    0.9      193.8  -14.7   15.0  146.1   -5.8   187.1
 19 JAN 30  30:00:00:00     286    1.3      17    1.5      193.8  -14.5   15.0  146.1   -5.8   186.5
 19 JAN 30  30:01:00:00     286    1.2      17    1.6      193.8  -14.3   15.0  146.1   -5.8   186.0
 19 JAN 30  30:02:00:00     290    1.7      18    2.7      193.8  -14.2   15.0  146.1   -5.8   185.4
 19 JAN 30  30:03:00:00     293    1.7      18    3.4      193.8  -14.0   15.0  146.1   -5.8   184.8
 19 JAN 30  30:04:00:00     294    1.9      18    3.7      193.8  -13.8   15.0  146.1   -5.8   184.3
 19 JAN 30  30:05:00:00     294    1.7      19    3.6      193.8  -13.7   15.0  146.1   -5.8   183.7
 19 JAN 30  30:06:00:00     291    1.6      18    2.8      193.8  -13.5   15.0  146.1   -5.8   183.2
 19 JAN 30  30:07:00:00     288    1.3      17    2.3      193.8  -13.3   15.0  146.1   -5.8   182.7
 19 JAN 30  30:08:00:00     285    1.3      17    2.0      193.9  -13.2   15.0  146.1   -5.8   182.1
 19 JAN 30  30:09:00:00     288    1.2      17    2.5      193.9  -13.0   15.0  146.1   -5.8   181.6
 19 JAN 30  30:10:00:00     289    0.7      18    1.7      193.9  -12.8   15.0  146.1   -5.8   181.0
 19 JAN 30  30:11:00:00     284    1.2      17    2.1      193.9  -12.7   15.0  146.1   -5.8   180.5
 19 JAN 30  30:12:00:00     286    2.3      17    3.5      193.9  -12.5   15.0  146.1   -5.8   179.9
 19 JAN 30  30:13:00:00     284    2.5      17    3.5      193.9  -12.3   15.0  146.1   -5.8   179.4
 19 JAN 30  30:14:00:00     283    4.1      17    4.1      193.9  -12.2   15.0  146.1   -5.8   178.8
 19 JAN 30  30:15:00:00     285    5.0      17    4.6      193.9  -12.0   15.0  146.1   -5.8   178.2
 19 JAN 30  30:16:00:00     289   10.8      17    6.3      193.9  -11.8   15.0  146.1   -5.8   177.7
 19 JAN 30  30:17:00:00      -1   -1.0      -1   99.0      193.9  -11.7   15.0  146.1   -5.8   177.2
 19 JAN 30  30:18:00:00      -1   -1.0      -1   99.0      193.9  -11.5   15.0  146.1   -5.8   176.6
 19 JAN 30  30:19:00:00      -1   -1.0      -1   99.0      193.9  -11.3   15.0  146.1   -5.8   176.1
 19 JAN 30  30:20:00:00      -1   -1.0      -1   99.0      193.9  -11.2   15.0  146.1   -5.9   175.5
 19 JAN 30  30:21:00:00      -1   -1.0      -1   99.0      193.9  -11.0   15.0  146.1   -5.9   175.0
 19 JAN 30  30:22:00:00      -1   -1.0      -1   99.0      193.9  -10.8   15.0  146.1   -5.9   174.4
 19 JAN 30  30:23:00:00      -1   -1.0      -1   99.0      193.9  -10.6   15.0  146.1   -5.9   173.9
 19 JAN 31  31:00:00:00     287    9.7      17    3.8      193.9  -10.5   15.0  146.1   -5.9   173.3
 19 JAN 31  31:01:00:00     289   18.2      17    5.7      193.9  -10.3   15.0  146.1   -5.9   172.8
 19 JAN 31  31:02:00:00     292   20.4      18    6.2      193.9  -10.1   15.0  146.1   -5.9   172.2
 19 JAN 31  31:03:00:00     298   15.5      19    5.6      193.9  -10.0   15.1  146.1   -5.9   171.7